createdAt,value
2022-08-18T00:01:18.911Z,19.20
2022-08-18T00:03:57.360Z,19.20
2022-08-18T00:06:28.410Z,19.20
2022-08-18T00:08:56.066Z,19.20
2022-08-18T00:11:23.651Z,19.30
2022-08-18T00:13:50.222Z,19.30
2022-08-18T00:16:16.829Z,19.40
2022-08-18T00:18:43.399Z,19.50
2022-08-18T00:21:09.988Z,19.50
2022-08-18T00:23:38.547Z,19.60
2022-08-18T00:26:05.183Z,19.60
2022-08-18T00:28:31.790Z,19.60
2022-08-18T00:30:58.378Z,19.60
2022-08-18T00:33:25.031Z,19.50
2022-08-18T00:35:51.677Z,19.40
2022-08-18T00:38:23.287Z,19.40
2022-08-18T00:40:54.419Z,19.30
2022-08-18T00:43:22.426Z,19.20
2022-08-18T00:45:49.077Z,19.10
2022-08-18T00:48:15.692Z,19.00
2022-08-18T00:50:43.304Z,18.90
2022-08-18T00:53:13.540Z,18.90
2022-08-18T00:55:41.609Z,18.80
2022-08-18T00:58:39.873Z,18.90
2022-08-18T01:01:06.694Z,18.80
2022-08-18T01:03:33.826Z,18.70
2022-08-18T01:06:01.795Z,18.70
2022-08-18T01:08:29.397Z,18.70
2022-08-18T01:10:56.463Z,18.70
2022-08-18T01:13:25.850Z,18.60
2022-08-18T01:15:52.445Z,18.50
2022-08-18T01:18:37.880Z,18.50
2022-08-18T01:21:43.462Z,18.40
2022-08-18T01:24:10.209Z,18.30
2022-08-18T01:26:37.771Z,18.30
2022-08-18T01:29:18.572Z,18.40
2022-08-18T01:31:55.438Z,18.30
2022-08-18T01:34:24.550Z,18.30
2022-08-18T01:36:52.504Z,18.30
2022-08-18T01:41:17.334Z,18.20
2022-08-18T01:42:06.320Z,18.20
2022-08-18T01:44:33.672Z,18.10
2022-08-18T01:47:00.270Z,18.10
2022-08-18T01:49:28.800Z,18.10
2022-08-18T01:51:58.437Z,18.10
2022-08-18T01:54:30.357Z,18.10
2022-08-18T01:56:57.325Z,18.10
2022-08-18T01:59:23.914Z,18.10
2022-08-18T02:01:53.773Z,18.10
2022-08-18T02:04:35.107Z,18.10
2022-08-18T02:07:04.283Z,18.10
2022-08-18T02:09:31.025Z,18.00
2022-08-18T02:11:57.616Z,18.00
2022-08-18T02:14:26.966Z,17.90
2022-08-18T02:17:01.388Z,17.90
2022-08-18T02:19:36.657Z,17.90
2022-08-18T02:22:03.554Z,18.00
2022-08-18T02:24:30.176Z,18.00
2022-08-18T02:26:56.776Z,18.00
2022-08-18T02:29:23.353Z,17.90
2022-08-18T02:31:49.962Z,17.90
2022-08-18T02:34:16.811Z,17.80
2022-08-18T02:36:44.022Z,17.70
2022-08-18T02:39:10.593Z,17.70
2022-08-18T02:41:37.226Z,17.70
2022-08-18T02:44:04.809Z,17.70
2022-08-18T02:46:31.562Z,17.80
2022-08-18T02:48:59.297Z,17.80
2022-08-18T02:51:26.083Z,17.80
2022-08-18T02:53:52.826Z,17.70
2022-08-18T02:56:40.413Z,17.70
2022-08-18T02:59:09.419Z,17.80
2022-08-18T03:01:38.344Z,17.70
2022-08-18T03:04:06.525Z,17.70
2022-08-18T03:06:33.793Z,17.60
2022-08-18T03:09:00.372Z,17.60
2022-08-18T03:11:28.161Z,17.50
2022-08-18T03:13:55.106Z,17.50
2022-08-18T03:16:21.703Z,17.50
2022-08-18T03:18:48.275Z,17.50
2022-08-18T03:21:15.939Z,17.50
2022-08-18T03:23:42.824Z,17.50
2022-08-18T03:26:11.647Z,17.50
2022-08-18T03:28:38.693Z,17.50
2022-08-18T03:31:05.381Z,17.50
2022-08-18T03:33:31.956Z,17.40
2022-08-18T03:36:05.686Z,17.40
2022-08-18T03:38:32.286Z,17.40
2022-08-18T03:40:58.897Z,17.30
2022-08-18T03:43:51.004Z,17.30
2022-08-18T03:46:13.279Z,17.20
2022-08-18T03:48:41.002Z,17.30
2022-08-18T03:51:10.140Z,17.30
2022-08-18T03:53:37.181Z,17.20
2022-08-18T03:56:15.766Z,17.10
2022-08-18T03:58:45.802Z,17.20
2022-08-18T04:01:15.659Z,17.20
2022-08-18T04:03:54.180Z,17.30
2022-08-18T04:06:30.310Z,17.30
2022-08-18T04:09:00.312Z,17.30
2022-08-18T04:11:28.433Z,17.30
2022-08-18T04:14:02.484Z,17.20
2022-08-18T04:16:29.904Z,17.20
2022-08-18T04:19:00.340Z,17.20
2022-08-18T04:21:26.932Z,17.20
2022-08-18T04:23:54.243Z,17.20
2022-08-18T04:26:21.725Z,17.30
2022-08-18T04:28:48.315Z,17.30
2022-08-18T04:31:14.957Z,17.30
2022-08-18T04:33:42.029Z,17.40
2022-08-18T04:36:20.539Z,17.40
2022-08-18T04:38:47.487Z,17.40
2022-08-18T04:41:14.156Z,17.50
2022-08-18T04:43:40.816Z,17.50
2022-08-18T04:46:07.538Z,17.50
2022-08-18T04:48:38.000Z,17.50
2022-08-18T04:51:08.778Z,17.90
2022-08-18T04:53:47.824Z,18.60
2022-08-18T04:56:26.728Z,19.30
2022-08-18T04:58:54.139Z,19.40
2022-08-18T05:01:21.968Z,19.00
2022-08-18T05:03:52.044Z,18.80
2022-08-18T05:06:19.596Z,18.70
2022-08-18T05:08:48.231Z,18.50
2022-08-18T05:11:15.083Z,18.70
2022-08-18T05:13:42.834Z,19.20
2022-08-18T05:16:16.723Z,19.70
2022-08-18T05:18:44.799Z,20.10
2022-08-18T05:21:15.501Z,20.30
2022-08-18T05:23:42.510Z,20.30
2022-08-18T05:26:09.210Z,20.10
2022-08-18T05:28:37.353Z,19.90
2022-08-18T05:31:14.128Z,19.60
2022-08-18T05:33:40.895Z,19.30
2022-08-18T05:36:25.534Z,19.00
2022-08-18T05:38:54.065Z,19.00
2022-08-18T05:41:22.522Z,19.40
2022-08-18T05:43:52.128Z,19.80
2022-08-18T05:46:19.120Z,20.20
2022-08-18T05:48:48.485Z,20.30
2022-08-18T05:51:16.873Z,20.40
2022-08-18T05:54:02.292Z,20.50
2022-08-18T05:56:47.768Z,20.60
2022-08-18T05:59:15.901Z,20.80
2022-08-18T06:01:44.215Z,20.80
2022-08-18T06:04:23.221Z,20.70
2022-08-18T06:06:49.994Z,20.70
2022-08-18T06:09:31.689Z,20.80
2022-08-18T06:12:08.881Z,20.60
2022-08-18T06:14:36.744Z,20.40
2022-08-18T06:17:07.548Z,20.20
2022-08-18T06:19:37.936Z,20.10
2022-08-18T06:22:04.489Z,20.00
2022-08-18T06:24:50.069Z,20.00
2022-08-18T06:27:23.459Z,20.30
2022-08-18T06:29:50.222Z,20.50
2022-08-18T06:32:17.756Z,20.60
2022-08-18T06:35:06.713Z,20.60
2022-08-18T06:37:34.400Z,20.60
2022-08-18T06:40:02.242Z,20.70
2022-08-18T06:42:30.760Z,20.90
2022-08-18T06:45:12.994Z,21.20
2022-08-18T06:47:44.570Z,21.40
2022-08-18T06:50:21.699Z,21.60
2022-08-18T06:52:58.901Z,21.70
2022-08-18T06:55:32.676Z,21.80
2022-08-18T06:58:00.198Z,21.80
2022-08-18T07:00:27.854Z,22.00
2022-08-18T07:03:11.935Z,22.00
2022-08-18T07:05:39.240Z,22.00
2022-08-18T07:08:28.256Z,22.20
2022-08-18T07:10:54.836Z,22.30
2022-08-18T07:13:26.511Z,22.50
2022-08-18T07:15:54.396Z,22.60
2022-08-18T07:18:22.058Z,22.50
2022-08-18T07:20:53.734Z,22.60
2022-08-18T07:23:24.263Z,22.50
2022-08-18T07:25:51.242Z,22.50
2022-08-18T07:28:29.939Z,22.40
2022-08-18T07:31:17.300Z,22.30
2022-08-18T07:33:46.128Z,22.40
2022-08-18T07:36:12.722Z,22.60
2022-08-18T07:38:45.314Z,22.50
2022-08-18T07:41:15.774Z,22.60
2022-08-18T07:43:54.731Z,22.90
2022-08-18T07:46:23.723Z,23.20
2022-08-18T07:48:50.287Z,23.10
2022-08-18T07:51:22.282Z,23.00
2022-08-18T07:53:54.740Z,22.90
2022-08-18T07:56:30.084Z,22.80
2022-08-18T07:58:58.556Z,22.60
2022-08-18T08:01:29.735Z,22.70
2022-08-18T08:04:25.758Z,22.60
2022-08-18T08:07:20.784Z,22.80
2022-08-18T08:09:57.173Z,23.10
2022-08-18T08:12:37.139Z,23.30
2022-08-18T08:15:06.602Z,23.50
2022-08-18T08:17:33.167Z,24.00
2022-08-18T08:20:01.273Z,24.60
2022-08-18T08:22:33.324Z,25.20
2022-08-18T08:25:44.557Z,25.70
2022-08-18T08:28:16.652Z,25.70
2022-08-18T08:31:25.785Z,25.30
2022-08-18T08:33:52.225Z,25.10
2022-08-18T08:36:20.998Z,24.90
2022-08-18T08:39:04.893Z,24.90
2022-08-18T08:41:32.939Z,24.80
2022-08-18T08:44:06.318Z,25.20
2022-08-18T08:46:34.937Z,25.20
2022-08-18T08:49:07.187Z,25.50
2022-08-18T08:51:35.051Z,25.80
2022-08-18T08:54:04.530Z,25.80
2022-08-18T08:56:33.326Z,25.80
2022-08-18T08:59:07.492Z,25.90
2022-08-18T09:01:43.258Z,25.70
2022-08-18T09:04:09.812Z,25.60
2022-08-18T09:06:45.644Z,25.60
2022-08-18T09:09:24.894Z,25.70
2022-08-18T09:11:54.554Z,25.30
2022-08-18T09:14:39.860Z,24.60
2022-08-18T09:17:17.246Z,24.30
2022-08-18T09:19:52.696Z,23.90
2022-08-18T09:22:38.124Z,23.70
2022-08-18T09:25:09.204Z,23.60
2022-08-18T09:28:08.893Z,23.50
2022-08-18T09:30:37.609Z,23.60
2022-08-18T09:33:18.491Z,23.90
2022-08-18T09:35:54.574Z,24.00
2022-08-18T09:38:41.302Z,24.10
2022-08-18T09:41:31.293Z,24.30
2022-08-18T09:44:18.225Z,24.40
2022-08-18T09:46:48.342Z,24.70
2022-08-18T09:49:27.163Z,25.00
2022-08-18T09:51:53.721Z,25.60
2022-08-18T09:54:21.412Z,25.90
2022-08-18T09:56:54.560Z,26.30
2022-08-18T09:59:35.019Z,26.40
2022-08-18T10:02:14.223Z,26.60
2022-08-18T10:04:51.482Z,26.30
2022-08-18T10:07:28.956Z,26.00
2022-08-18T10:10:12.827Z,25.80
2022-08-18T10:13:16.153Z,25.80
2022-08-18T10:15:47.183Z,25.90
2022-08-18T10:18:34.054Z,25.80
2022-08-18T10:21:03.649Z,25.70
2022-08-18T10:23:58.148Z,25.70
2022-08-18T10:26:37.427Z,25.80
2022-08-18T10:29:10.965Z,25.90
2022-08-18T10:31:59.889Z,26.00
2022-08-18T10:34:39.357Z,26.00
2022-08-18T10:37:32.383Z,25.90
2022-08-18T10:40:21.290Z,25.60
2022-08-18T10:46:23.099Z,25.50
2022-08-18T10:48:35.196Z,25.80
2022-08-18T10:51:09.799Z,26.10
2022-08-18T10:53:55.355Z,26.60
2022-08-18T10:56:30.273Z,26.90
2022-08-18T10:59:06.075Z,27.00
2022-08-18T11:01:48.606Z,26.60
2022-08-18T11:07:14.607Z,26.30
2022-08-18T11:09:50.677Z,26.00
2022-08-18T11:12:43.716Z,25.70
2022-08-18T11:15:22.304Z,25.80
2022-08-18T11:17:56.611Z,26.10
2022-08-18T11:20:27.109Z,26.10
2022-08-18T11:22:57.030Z,26.10
2022-08-18T11:25:28.970Z,25.90
2022-08-18T11:27:56.451Z,25.60
2022-08-18T11:30:31.032Z,25.50
2022-08-18T11:32:59.447Z,25.50
2022-08-18T11:35:34.226Z,25.60
2022-08-18T11:38:01.894Z,25.70
2022-08-18T11:41:09.479Z,25.70
2022-08-18T11:43:38.917Z,26.00
2022-08-18T11:46:12.832Z,26.30
2022-08-18T11:48:52.198Z,26.00
2022-08-18T11:51:24.169Z,26.20
2022-08-18T11:53:58.933Z,26.40
2022-08-18T11:59:25.126Z,26.50
2022-08-18T12:02:14.818Z,26.40
2022-08-18T12:04:42.427Z,26.50
2022-08-18T12:07:10.293Z,26.50
2022-08-18T12:10:16.870Z,26.30
2022-08-18T12:12:28.125Z,25.90
2022-08-18T12:17:49.847Z,25.70
2022-08-18T12:20:19.733Z,25.90
2022-08-18T12:22:46.431Z,26.00
2022-08-18T12:25:13.965Z,25.90
2022-08-18T12:27:40.605Z,25.90
2022-08-18T12:30:07.526Z,26.10
2022-08-18T12:32:50.547Z,26.10
2022-08-18T12:35:21.623Z,26.00
2022-08-18T12:38:13.799Z,25.50
2022-08-18T12:40:35.577Z,25.40
2022-08-18T12:43:02.164Z,25.40
2022-08-18T12:45:31.048Z,25.40
2022-08-18T12:47:59.574Z,25.30
2022-08-18T12:50:31.194Z,25.30
2022-08-18T12:53:00.100Z,25.20
2022-08-18T12:55:28.037Z,25.30
2022-08-18T12:57:55.035Z,25.40
2022-08-18T13:00:27.940Z,25.70
2022-08-18T13:02:56.013Z,26.00
2022-08-18T13:05:26.368Z,26.50
2022-08-18T13:07:55.037Z,26.70
2022-08-18T13:10:44.977Z,26.80
2022-08-18T13:13:10.962Z,26.70
2022-08-18T13:15:37.604Z,26.60
2022-08-18T13:18:04.349Z,26.40
2022-08-18T13:20:31.259Z,26.20
2022-08-18T13:22:57.892Z,26.10
2022-08-18T13:25:32.694Z,26.40
2022-08-18T13:28:00.614Z,26.70
2022-08-18T13:30:31.466Z,27.20
2022-08-18T13:33:05.589Z,27.60
2022-08-18T13:35:48.345Z,27.70
2022-08-18T13:38:27.620Z,28.00
2022-08-18T13:40:55.593Z,28.00
2022-08-18T13:43:25.965Z,27.50
2022-08-18T13:45:55.828Z,27.30
2022-08-18T13:48:24.000Z,27.10
2022-08-18T13:50:52.994Z,27.20
2022-08-18T13:53:19.863Z,27.20
2022-08-18T13:55:46.666Z,27.30
2022-08-18T13:58:17.462Z,27.50
2022-08-18T14:00:46.839Z,27.40
2022-08-18T14:03:30.687Z,27.40
2022-08-18T14:06:03.125Z,27.20
2022-08-18T14:08:34.105Z,27.10
2022-08-18T14:11:01.286Z,27.10
2022-08-18T14:13:28.552Z,27.20
2022-08-18T14:15:55.981Z,27.30
2022-08-18T14:18:29.147Z,27.20
2022-08-18T14:21:15.974Z,27.20
2022-08-18T14:24:01.063Z,27.40
2022-08-18T14:26:46.705Z,27.30
2022-08-18T14:29:16.986Z,27.30
2022-08-18T14:31:45.085Z,27.20
2022-08-18T14:34:11.793Z,27.00
2022-08-18T14:36:38.591Z,26.90
2022-08-18T14:39:06.067Z,26.60
2022-08-18T14:41:35.199Z,26.50
2022-08-18T14:44:13.498Z,26.50
2022-08-18T14:46:54.548Z,26.50
2022-08-18T14:49:28.124Z,26.40
2022-08-18T14:51:56.066Z,26.20
2022-08-18T14:54:23.717Z,26.00
2022-08-18T14:56:55.049Z,25.70
2022-08-18T14:59:23.238Z,25.70
2022-08-18T15:01:50.295Z,25.60
2022-08-18T15:04:19.350Z,25.60
2022-08-18T15:06:56.051Z,25.70
2022-08-18T15:09:27.346Z,25.60
2022-08-18T15:11:55.879Z,25.50
2022-08-18T15:14:26.625Z,25.30
2022-08-18T15:17:00.076Z,25.20
2022-08-18T15:19:58.671Z,25.10
2022-08-18T15:22:32.336Z,25.00
2022-08-18T15:25:17.880Z,24.90
2022-08-18T15:27:47.923Z,24.80
2022-08-18T15:30:19.720Z,24.80
2022-08-18T15:32:46.883Z,24.80
2022-08-18T15:35:16.625Z,24.80
2022-08-18T15:37:44.706Z,24.90
2022-08-18T15:40:30.117Z,24.90
2022-08-18T15:43:01.277Z,24.90
2022-08-18T15:45:29.309Z,24.90
2022-08-18T15:48:02.160Z,25.00
2022-08-18T15:50:28.787Z,25.00
2022-08-18T15:53:00.615Z,24.90
2022-08-18T15:55:29.135Z,24.80
2022-08-18T15:58:02.465Z,24.70
2022-08-18T16:00:30.662Z,24.70
2022-08-18T16:02:59.998Z,24.60
2022-08-18T16:05:28.378Z,24.50
2022-08-18T16:07:57.779Z,24.40
2022-08-18T16:10:25.199Z,24.20
2022-08-18T16:12:51.921Z,24.10
2022-08-18T16:15:21.522Z,24.10
2022-08-18T16:17:49.256Z,23.90
2022-08-18T16:20:15.943Z,23.90
2022-08-18T16:22:42.809Z,23.90
2022-08-18T16:25:09.493Z,23.80
2022-08-18T16:27:36.260Z,23.70
2022-08-18T16:30:06.816Z,23.60
2022-08-18T16:32:33.499Z,23.60
2022-08-18T16:35:00.150Z,23.60
2022-08-18T16:37:27.088Z,23.50
2022-08-18T16:39:54.105Z,23.50
2022-08-18T16:42:20.753Z,23.50
2022-08-18T16:44:47.389Z,23.50
2022-08-18T16:47:17.411Z,23.50
2022-08-18T16:49:45.509Z,23.50
2022-08-18T16:52:13.322Z,23.50
2022-08-18T16:54:39.900Z,23.50
2022-08-18T16:57:06.762Z,23.50
2022-08-18T16:59:52.212Z,23.50
2022-08-18T17:02:37.639Z,23.40
2022-08-18T17:05:04.541Z,23.40
2022-08-18T17:07:31.572Z,23.30
2022-08-18T17:09:58.159Z,23.30
2022-08-18T17:12:24.922Z,23.30
2022-08-18T17:14:52.208Z,23.30
2022-08-18T17:17:18.848Z,23.40
2022-08-18T17:19:45.636Z,23.30
2022-08-18T17:22:12.297Z,23.40
2022-08-18T17:24:46.350Z,23.30
2022-08-18T17:27:27.231Z,23.30
2022-08-18T17:30:08.237Z,23.30
2022-08-18T17:32:39.809Z,23.30
2022-08-18T17:35:07.890Z,23.30
2022-08-18T17:37:34.506Z,23.30
2022-08-18T17:40:10.143Z,23.40
2022-08-18T17:42:40.563Z,23.40
2022-08-18T17:45:10.427Z,23.40
2022-08-18T17:47:42.505Z,23.30
2022-08-18T17:50:31.950Z,23.40
2022-08-18T17:53:00.552Z,23.30
2022-08-18T17:55:29.096Z,23.20
2022-08-18T17:58:04.030Z,23.10
2022-08-18T18:00:31.419Z,23.00
2022-08-18T18:02:58.282Z,23.00
2022-08-18T18:05:26.406Z,22.80
2022-08-18T18:07:57.232Z,22.70
2022-08-18T18:10:30.829Z,22.60
2022-08-18T18:13:10.454Z,22.60
2022-08-18T18:15:40.539Z,22.60
2022-08-18T18:18:21.712Z,22.50
2022-08-18T18:20:58.630Z,22.40
2022-08-18T18:23:28.069Z,22.40
2022-08-18T18:25:58.021Z,22.30
2022-08-18T18:28:28.782Z,22.20
2022-08-18T18:30:58.640Z,22.20
2022-08-18T18:33:28.914Z,22.10
2022-08-18T18:36:02.540Z,22.10
2022-08-18T18:38:31.496Z,22.10
2022-08-18T18:41:02.847Z,22.00
2022-08-18T18:43:45.010Z,22.00
2022-08-18T18:46:22.267Z,22.00
2022-08-18T18:49:12.151Z,22.10
2022-08-18T18:51:41.250Z,22.00
2022-08-18T18:54:13.561Z,22.10
2022-08-18T18:57:12.759Z,22.10
2022-08-18T18:59:51.790Z,22.10
2022-08-18T19:02:33.888Z,22.00
2022-08-18T19:05:17.765Z,22.00
2022-08-18T19:08:03.802Z,22.00
2022-08-18T19:10:45.138Z,22.00
2022-08-18T19:13:32.192Z,21.90
2022-08-18T19:16:02.084Z,21.90
2022-08-18T19:18:29.744Z,21.90
2022-08-18T19:22:02.284Z,21.90
2022-08-18T19:24:04.879Z,21.90
2022-08-18T19:26:37.567Z,21.90
2022-08-18T19:29:13.278Z,21.90
2022-08-18T19:31:42.384Z,21.90
2022-08-18T19:34:10.912Z,21.80
2022-08-18T19:36:45.306Z,21.80
2022-08-18T19:39:23.729Z,21.80
2022-08-18T19:42:01.145Z,21.70
2022-08-18T19:44:30.908Z,21.80
2022-08-18T19:46:58.721Z,21.70
2022-08-18T19:49:26.456Z,21.70
2022-08-18T19:51:54.633Z,21.70
2022-08-18T19:54:32.117Z,21.70
2022-08-18T19:57:20.320Z,21.70
2022-08-18T19:59:59.321Z,21.60
2022-08-18T20:02:33.912Z,21.60
2022-08-18T20:05:03.673Z,21.50
2022-08-18T20:07:53.383Z,21.50
2022-08-18T20:10:27.489Z,21.50
2022-08-18T20:12:57.602Z,21.50
2022-08-18T20:15:25.506Z,21.50
2022-08-18T20:17:58.082Z,21.50
2022-08-18T20:20:25.320Z,21.50
2022-08-18T20:22:56.847Z,21.50
2022-08-18T20:25:23.806Z,21.50
2022-08-18T20:28:13.410Z,21.50
2022-08-18T20:30:52.208Z,21.50
2022-08-18T20:33:25.855Z,21.50
2022-08-18T20:36:11.580Z,21.50
2022-08-18T20:38:46.425Z,21.50
2022-08-18T20:41:22.202Z,21.50
2022-08-18T20:43:53.437Z,21.50
2022-08-18T20:46:19.997Z,21.40
2022-08-18T20:49:08.443Z,21.30
2022-08-18T20:51:45.905Z,21.40
2022-08-18T20:54:31.392Z,21.20
2022-08-18T20:56:59.666Z,21.20
2022-08-18T20:59:30.573Z,21.10
2022-08-18T21:01:58.617Z,21.10
2022-08-18T21:04:35.095Z,21.00
2022-08-18T21:07:11.849Z,20.90
2022-08-18T21:09:39.603Z,20.90
2022-08-18T21:12:06.194Z,20.80
2022-08-18T21:14:32.801Z,20.80
2022-08-18T21:17:00.313Z,20.70
2022-08-18T21:19:28.152Z,20.60
2022-08-18T21:21:58.667Z,20.60
2022-08-18T21:24:31.541Z,20.60
2022-08-18T21:26:58.792Z,20.70
2022-08-18T21:29:26.221Z,20.60
2022-08-18T21:31:52.792Z,20.70
2022-08-18T21:34:33.334Z,20.70
2022-08-18T21:37:00.878Z,20.70
2022-08-18T21:39:27.484Z,20.60
2022-08-18T21:41:55.397Z,20.60
2022-08-18T21:44:22.240Z,20.50
2022-08-18T21:46:48.813Z,20.50
2022-08-18T21:49:25.499Z,20.50
2022-08-18T21:51:52.139Z,20.50
2022-08-18T21:54:19.966Z,20.50
2022-08-18T21:56:46.611Z,20.50
2022-08-18T21:59:17.086Z,20.50
2022-08-18T22:01:48.199Z,20.50
2022-08-18T22:04:17.849Z,20.40
2022-08-18T22:06:49.359Z,20.50
2022-08-18T22:09:35.688Z,20.40
2022-08-18T22:12:41.280Z,20.40
2022-08-18T22:15:07.858Z,20.40
2022-08-18T22:17:42.027Z,20.30
2022-08-18T22:20:27.181Z,20.30
2022-08-18T22:23:15.856Z,20.20
2022-08-18T22:25:42.734Z,20.20
2022-08-18T22:28:09.317Z,20.10
2022-08-18T22:30:37.117Z,20.20
2022-08-18T22:33:03.703Z,20.20
2022-08-18T22:35:30.301Z,20.20
2022-08-18T22:37:56.871Z,20.10
2022-08-18T22:40:23.493Z,20.10
2022-08-18T22:42:50.153Z,20.20
2022-08-18T22:45:16.776Z,20.10
2022-08-18T22:47:45.254Z,20.10
2022-08-18T22:50:12.220Z,20.10
2022-08-18T22:52:43.100Z,20.10
2022-08-18T22:55:10.409Z,20.20
2022-08-18T22:57:37.558Z,20.20
2022-08-18T23:00:07.532Z,20.20
2022-08-18T23:02:36.798Z,20.20
2022-08-18T23:05:03.580Z,20.20
2022-08-18T23:07:31.449Z,20.30
2022-08-18T23:09:58.075Z,20.40
2022-08-18T23:12:24.644Z,20.40
2022-08-18T23:14:51.862Z,20.40
2022-08-18T23:17:18.575Z,20.40
2022-08-18T23:19:46.753Z,20.40
2022-08-18T23:22:13.896Z,20.40
2022-08-18T23:24:40.832Z,20.50
2022-08-18T23:27:07.849Z,20.40
2022-08-18T23:29:37.443Z,20.50
2022-08-18T23:32:05.761Z,20.40
2022-08-18T23:34:32.370Z,20.40
2022-08-18T23:37:01.166Z,20.40
2022-08-18T23:39:28.363Z,20.40
2022-08-18T23:41:55.403Z,20.40
2022-08-18T23:44:22.495Z,20.40
2022-08-18T23:46:52.041Z,20.30
2022-08-18T23:49:18.843Z,20.30
2022-08-18T23:51:46.272Z,20.30
2022-08-18T23:54:13.850Z,20.30
2022-08-18T23:56:40.441Z,20.30
2022-08-18T23:59:07.180Z,20.30
